LFQQ/LIL METAR and TAF weather

Enter ICAO airport designator
Station Type Date Time Source
LFQQ METAR 2022/06/25 22:30 UTC NOAA

LFQQ 252230Z AUTO 17006KT CAVOK 14/13 Q1012 TEMPO 3000 BR BKN010 BECMG 11010KT


Station Type Date Time Source
LFQQ Decoded METAR 2022/06/25 22:30 UTC NOAA

Lille, France (LFQQ) 50-34N 003-06E 52M
Jun 25, 2022 - 06:30 PM EDT / 2022.06.25 2230 UTC
Wind: from the S (170 degrees) at 7 MPH (6 KT):0
Visibility: greater than 7 mile(s):0
Temperature: 57 F (14 C)
Dew Point: 55 F (13 C)
Relative Humidity: 93%
Pressure (altimeter): 29.88 in. Hg (1012 hPa)
ob: LFQQ 252230Z AUTO 17006KT CAVOK 14/13 Q1012 TEMPO 3000 BR BKN010 BECMG 11010KT
cycle: 22

Station Type Date Time Source
LFQQ TAF 2022/06/25 18:47 UTC NOAA

TAF
AMD LFQQ 251838Z 2518/2624 11010KT 9999 SCT030 BKN050
TEMPO 2518/2520 3000 RA PROB30
TEMPO 2600/2605 3000 BR BKN010

Example: see airport list